Minerva Anna — SVNP — position and weather

sailwx.info

Track history (hours):
 
Tides and Currents Weather Stations Pressure Air Temp Water Temp Dewpoint Dewpoint Depression Visibility Wind Speed Wind Dir Waves Ship Positions

Minerva Anna

Last reported at 2017-Oct-06 10:28 UTC. Time now 2017-Oct-20 19:54 UTC.
Position N 29°21' W 094°42'.
Warning: this ship's position is 14 days out of date.

Length 183 m; draft 11.2 m.

Type: Ship. MMSI: 240729000.

Date/timePositionNaut miles runAvg speedWind from/ knotsBaromVisibWave heightAir tempDewpointWater temp
2017-Oct-06 10:28N 29°21' W 094°42'710.2
2017-Oct-06 09:50N 29°23' W 094°49'411.5
2017-Oct-06 09:30N 29°27' W 094°51'611.4
2017-Oct-06 09:00N 29°32' W 094°54'611.3
2017-Oct-06 08:30N 29°37' W 094°57'510.8
2017-Oct-06 08:00N 29°42' W 094°59'4 7.3
2017-Oct-06 07:30N 29°44' W 095°03'0 0.0
2017-Oct-05 01:18N 29°44' W 095°03'0 0.7
2017-Oct-05 01:00N 29°44' W 095°03'3 6.2
2017-Oct-05 00:30N 29°42' W 095°00'611.5
2017-Oct-05 00:00N 29°37' W 094°57'713.2
2017-Oct-04 23:31N 29°31' W 094°53'713.8
2017-Oct-04 23:01N 29°25' W 094°50'  
2017-Oct-02 08:44N 29°21' W 094°44'5 9.8
2017-Oct-02 08:14N 29°23' W 094°49'311.0
2017-Oct-02 08:00N 29°26' W 094°50'611.7
2017-Oct-02 07:30N 29°31' W 094°53'612.0
2017-Oct-02 07:00N 29°36' W 094°57'611.1
2017-Oct-02 06:30N 29°41' W 094°59'4 8.0
2017-Oct-02 06:01N 29°44' W 095°02'1 1.5
2017-Oct-02 05:28N 29°44' W 095°03'0 0.0
2017-Oct-02 04:58N 29°44' W 095°03'0 0.0
2017-Oct-02 04:28N 29°44' W 095°03'0 0.0
2017-Oct-02 03:58N 29°44' W 095°03'0 0.0
2017-Oct-02 03:28N 29°44' W 095°03'0 0.0
2017-Oct-02 02:58N 29°44' W 095°03'0 0.0
2017-Oct-02 02:28N 29°44' W 095°03'0 0.0
2017-Oct-02 01:58N 29°44' W 095°03'0 0.0
2017-Oct-02 01:28N 29°44' W 095°03'0 0.0
2017-Oct-02 00:58N 29°44' W 095°03'0 0.0
2017-Oct-02 00:28N 29°44' W 095°03'0 0.0
2017-Oct-01 23:58N 29°44' W 095°03'0 0.0
2017-Oct-01 23:28N 29°44' W 095°03'0 0.0
2017-Oct-01 22:58N 29°44' W 095°03'0 0.0
2017-Oct-01 22:28N 29°44' W 095°03'0 0.0
2017-Oct-01 21:58N 29°44' W 095°03'0 0.0
2017-Oct-01 21:28N 29°44' W 095°03'0 0.0
2017-Oct-01 20:58N 29°44' W 095°03'0 0.0
2017-Oct-01 20:28N 29°44' W 095°03'0 0.0
2017-Oct-01 19:58N 29°44' W 095°03'0 0.0
2017-Oct-01 19:28N 29°44' W 095°03'0 0.0
2017-Oct-01 18:58N 29°44' W 095°03'0 0.0
2017-Oct-01 18:28N 29°44' W 095°03'0 0.0
2017-Oct-01 17:58N 29°44' W 095°03'0 0.0
2017-Oct-01 17:28N 29°44' W 095°03'0 0.0
2017-Oct-01 16:58N 29°44' W 095°03'0 0.0
2017-Oct-01 16:28N 29°44' W 095°03'0 0.0
2017-Oct-01 15:52N 29°44' W 095°03'0 0.0
2017-Oct-01 15:25N 29°44' W 095°03'0 0.0
2017-Oct-01 14:58N 29°44' W 095°03'0 0.0
2017-Oct-01 14:28N 29°44' W 095°03'0 0.0
2017-Oct-01 13:58N 29°44' W 095°03'0 0.0
2017-Oct-01 13:28N 29°44' W 095°03'0 0.0
2017-Oct-01 12:58N 29°44' W 095°03'0 0.0
2017-Oct-01 12:28N 29°44' W 095°03'0 0.0
2017-Oct-01 11:58N 29°44' W 095°03'0 0.0
2017-Oct-01 11:28N 29°44' W 095°03'0 0.0
2017-Oct-01 10:58N 29°44' W 095°03'0 0.0
2017-Oct-01 10:28N 29°44' W 095°03'0 0.0
2017-Oct-01 09:58N 29°44' W 095°03'0 0.0
2017-Oct-01 09:28N 29°44' W 095°03'0 0.0
2017-Oct-01 08:58N 29°44' W 095°03'0 0.0
2017-Oct-01 08:28N 29°44' W 095°03'0 0.0
2017-Oct-01 07:58N 29°44' W 095°03'0 0.0
2017-Oct-01 07:28N 29°44' W 095°03'0 0.0
2017-Oct-01 06:58N 29°44' W 095°03'0 0.0
2017-Oct-01 06:28N 29°44' W 095°03'0 0.0
2017-Oct-01 05:58N 29°44' W 095°03'0 0.0
2017-Oct-01 05:28N 29°44' W 095°03'0 0.0
2017-Oct-01 04:58N 29°44' W 095°03'0 0.0
2017-Oct-01 04:28N 29°44' W 095°03'0 0.0
2017-Oct-01 03:58N 29°44' W 095°03'0 0.0
2017-Oct-01 03:28N 29°44' W 095°03'0 0.0
2017-Oct-01 02:58N 29°44' W 095°03'  
2017-Sep-28 14:10N 29°45' W 095°06'0 0.1
2017-Sep-28 14:00N 29°45' W 095°06'2 3.1
2017-Sep-28 13:30N 29°45' W 095°04'3 6.2
2017-Sep-28 13:00N 29°43' W 095°01'4 8.0
2017-Sep-28 12:30N 29°40' W 094°59'510.8
2017-Sep-28 12:00N 29°35' W 094°56'5 9.9
2017-Sep-28 11:30N 29°31' W 094°53'612.0
2017-Sep-28 11:00N 29°26' W 094°50'25 6.5
2017-Sep-28 07:11N 29°06' W 094°32'511.7
2017-Sep-28 06:47N 29°07' W 094°37'  
Track history (hours):
 
Tides and Currents Weather Stations Pressure Air Temp Water Temp Dewpoint Dewpoint Depression Visibility Wind Speed Wind Dir Waves Ship Positions

Minerva Anna

Last reported at 2017-Oct-06 10:28 UTC. Time now 2017-Oct-20 19:54 UTC.
Position N 29°21' W 094°42'.
Warning: this ship's position is 14 days out of date.

Length 183 m; draft 11.2 m.

Type: Ship. MMSI: 240729000.

Date/timePositionNaut miles runAvg speedWind from/ knotsBaromVisibWave heightAir tempDewpointWater temp
2017-Oct-06 10:28N 29°21' W 094°42'710.2
2017-Oct-06 09:50N 29°23' W 094°49'411.5
2017-Oct-06 09:30N 29°27' W 094°51'611.4
2017-Oct-06 09:00N 29°32' W 094°54'611.3
2017-Oct-06 08:30N 29°37' W 094°57'510.8
2017-Oct-06 08:00N 29°42' W 094°59'4 7.3
2017-Oct-06 07:30N 29°44' W 095°03'0 0.0
2017-Oct-05 01:18N 29°44' W 095°03'0 0.7
2017-Oct-05 01:00N 29°44' W 095°03'3 6.2
2017-Oct-05 00:30N 29°42' W 095°00'611.5
2017-Oct-05 00:00N 29°37' W 094°57'713.2
2017-Oct-04 23:31N 29°31' W 094°53'713.8
2017-Oct-04 23:01N 29°25' W 094°50'  
2017-Oct-02 08:44N 29°21' W 094°44'5 9.8
2017-Oct-02 08:14N 29°23' W 094°49'311.0
2017-Oct-02 08:00N 29°26' W 094°50'611.7
2017-Oct-02 07:30N 29°31' W 094°53'612.0
2017-Oct-02 07:00N 29°36' W 094°57'611.1
2017-Oct-02 06:30N 29°41' W 094°59'4 8.0
2017-Oct-02 06:01N 29°44' W 095°02'1 1.5
2017-Oct-02 05:28N 29°44' W 095°03'0 0.0
2017-Oct-02 04:58N 29°44' W 095°03'0 0.0
2017-Oct-02 04:28N 29°44' W 095°03'0 0.0
2017-Oct-02 03:58N 29°44' W 095°03'0 0.0
2017-Oct-02 03:28N 29°44' W 095°03'0 0.0
2017-Oct-02 02:58N 29°44' W 095°03'0 0.0
2017-Oct-02 02:28N 29°44' W 095°03'0 0.0
2017-Oct-02 01:58N 29°44' W 095°03'0 0.0
2017-Oct-02 01:28N 29°44' W 095°03'0 0.0
2017-Oct-02 00:58N 29°44' W 095°03'0 0.0
2017-Oct-02 00:28N 29°44' W 095°03'0 0.0
2017-Oct-01 23:58N 29°44' W 095°03'0 0.0
2017-Oct-01 23:28N 29°44' W 095°03'0 0.0
2017-Oct-01 22:58N 29°44' W 095°03'0 0.0
2017-Oct-01 22:28N 29°44' W 095°03'0 0.0
2017-Oct-01 21:58N 29°44' W 095°03'0 0.0
2017-Oct-01 21:28N 29°44' W 095°03'0 0.0
2017-Oct-01 20:58N 29°44' W 095°03'0 0.0
2017-Oct-01 20:28N 29°44' W 095°03'0 0.0
2017-Oct-01 19:58N 29°44' W 095°03'0 0.0
2017-Oct-01 19:28N 29°44' W 095°03'0 0.0
2017-Oct-01 18:58N 29°44' W 095°03'0 0.0
2017-Oct-01 18:28N 29°44' W 095°03'0 0.0
2017-Oct-01 17:58N 29°44' W 095°03'0 0.0
2017-Oct-01 17:28N 29°44' W 095°03'0 0.0
2017-Oct-01 16:58N 29°44' W 095°03'0 0.0
2017-Oct-01 16:28N 29°44' W 095°03'0 0.0
2017-Oct-01 15:52N 29°44' W 095°03'0 0.0
2017-Oct-01 15:25N 29°44' W 095°03'0 0.0
2017-Oct-01 14:58N 29°44' W 095°03'0 0.0
2017-Oct-01 14:28N 29°44' W 095°03'0 0.0
2017-Oct-01 13:58N 29°44' W 095°03'0 0.0
2017-Oct-01 13:28N 29°44' W 095°03'0 0.0
2017-Oct-01 12:58N 29°44' W 095°03'0 0.0
2017-Oct-01 12:28N 29°44' W 095°03'0 0.0
2017-Oct-01 11:58N 29°44' W 095°03'0 0.0
2017-Oct-01 11:28N 29°44' W 095°03'0 0.0
2017-Oct-01 10:58N 29°44' W 095°03'0 0.0
2017-Oct-01 10:28N 29°44' W 095°03'0 0.0
2017-Oct-01 09:58N 29°44' W 095°03'0 0.0
2017-Oct-01 09:28N 29°44' W 095°03'0 0.0
2017-Oct-01 08:58N 29°44' W 095°03'0 0.0
2017-Oct-01 08:28N 29°44' W 095°03'0 0.0
2017-Oct-01 07:58N 29°44' W 095°03'0 0.0
2017-Oct-01 07:28N 29°44' W 095°03'0 0.0
2017-Oct-01 06:58N 29°44' W 095°03'0 0.0
2017-Oct-01 06:28N 29°44' W 095°03'0 0.0
2017-Oct-01 05:58N 29°44' W 095°03'0 0.0
2017-Oct-01 05:28N 29°44' W 095°03'0 0.0
2017-Oct-01 04:58N 29°44' W 095°03'0 0.0
2017-Oct-01 04:28N 29°44' W 095°03'0 0.0
2017-Oct-01 03:58N 29°44' W 095°03'0 0.0
2017-Oct-01 03:28N 29°44' W 095°03'0 0.0
2017-Oct-01 02:58N 29°44' W 095°03'  
2017-Sep-28 14:10N 29°45' W 095°06'0 0.1
2017-Sep-28 14:00N 29°45' W 095°06'2 3.1
2017-Sep-28 13:30N 29°45' W 095°04'3 6.2
2017-Sep-28 13:00N 29°43' W 095°01'4 8.0
2017-Sep-28 12:30N 29°40' W 094°59'510.8
2017-Sep-28 12:00N 29°35' W 094°56'5 9.9
2017-Sep-28 11:30N 29°31' W 094°53'612.0
2017-Sep-28 11:00N 29°26' W 094°50'25 6.5
2017-Sep-28 07:11N 29°06' W 094°32'511.7
2017-Sep-28 06:47N 29°07' W 094°37'  

Dump ship's entire track history